Saint Francis River (Missouri), Mill Creek (07035800)

StateMissouriLatestHigh (1420 cfs)
RiverSaint Francis RiverRatingObservedEstimated
Updated2020-02-25 14:30 (46 minutes ago)Flood - The river is flooding. Obstacles can be treacherous or deadly. The river should be avoided at this stage for casual trips and definitely for the inexperienced. Trips should be attempted only with protective gear and equipment.Flood(none)3018
Discharge1420 cfs (median: 479 cfs)High - The river is high and potentially dangerous, especially for the young and / or inexperienced. Normal stream obstacles are sometimes difficult to navigate. Extended distances can be attempted, but canoe travel may not be advisable.High(none)1131
Height4.12 feetGood - Conditions are ideal for a canoe or kayak. Boats typically will drag on fewer than one-quarter of riffles, if at all, and portages are unnecessary or rare. Normal float lengths can be attempted without a problem.Good(none)419
TrendFalling (rising over 24 hours)Low - River is low but can still be floated. Some riffles are okay but most come with significant dragging and might need a portage. Float lengths should be reduced to accommodate low flow, dragging, and portages.Low(none)111
USGSExternal icon USGS Site (External icon Google Maps)Poor - River is too low to float comfortably. Most or all riffles will drag or must be portaged and some obstacles (such as slick shelf rock) cause undue problems. Avoid the river at this stage for casual paddling trips.Poor(none)26

Trending Data

Plot Image

Trips for Saint Francis River (Missouri), Mill Creek (07035800)

DateStartEndDistanceConditionDischargeHeightFishingDetails

A total of 0 rows are displayed.

Condition Descriptions

Fishing Conditions

Fish Species

Notes

Classic Trip List

The classic River Trips application is still available for use. It is updated with the new system using a data retrofit. It is no longer maintained. The original River Trips application is no longer updated (as of 1 Dec 2016) but can be checked for errors or for the condition of the data before it was converted to the new system.

Gauge Data Table

ObservationHeightDischargeMaximum
Discharge
Minimum
Discharge
Mean
Discharge
P05P10P20P25P50
(Median)
P75P80P90P95
2020-02-25 14:30 4.12 1420 12600 (2018) 104 (1996) 1610 123 168 234 291 479 1110 1760 6110 11000
2020-02-25 14:00 4.14 1440 12600 (2018) 104 (1996) 1610 123 168 234 291 479 1110 1760 6110 11000
2020-02-25 13:30 4.14 1440 12600 (2018) 104 (1996) 1610 123 168 234 291 479 1110 1760 6110 11000
2020-02-25 13:00 4.16 1450 12600 (2018) 104 (1996) 1610 123 168 234 291 479 1110 1760 6110 11000
2020-02-25 12:30 4.17 1460 12600 (2018) 104 (1996) 1610 123 168 234 291 479 1110 1760 6110 11000
2020-02-25 12:00 4.19 1480 12600 (2018) 104 (1996) 1610 123 168 234 291 479 1110 1760 6110 11000
2020-02-25 11:30 4.19 1480 12600 (2018) 104 (1996) 1610 123 168 234 291 479 1110 1760 6110 11000
2020-02-25 11:00 4.20 1490 12600 (2018) 104 (1996) 1610 123 168 234 291 479 1110 1760 6110 11000
2020-02-25 10:30 4.22 1510 12600 (2018) 104 (1996) 1610 123 168 234 291 479 1110 1760 6110 11000
2020-02-25 10:00 4.23 1510 12600 (2018) 104 (1996) 1610 123 168 234 291 479 1110 1760 6110 11000
2020-02-25 09:30 4.25 1530 12600 (2018) 104 (1996) 1610 123 168 234 291 479 1110 1760 6110 11000
2020-02-25 09:00 4.25 1530 12600 (2018) 104 (1996) 1610 123 168 234 291 479 1110 1760 6110 11000
2020-02-25 08:30 4.27 1550 12600 (2018) 104 (1996) 1610 123 168 234 291 479 1110 1760 6110 11000
2020-02-25 08:00 4.28 1560 12600 (2018) 104 (1996) 1610 123 168 234 291 479 1110 1760 6110 11000
2020-02-25 07:30 4.29 1570 12600 (2018) 104 (1996) 1610 123 168 234 291 479 1110 1760 6110 11000
2020-02-25 07:00 4.31 1580 12600 (2018) 104 (1996) 1610 123 168 234 291 479 1110 1760 6110 11000
2020-02-25 06:30 4.32 1590 12600 (2018) 104 (1996) 1610 123 168 234 291 479 1110 1760 6110 11000
2020-02-25 06:00 4.33 1600 12600 (2018) 104 (1996) 1610 123 168 234 291 479 1110 1760 6110 11000
2020-02-25 05:30 4.35 1620 12600 (2018) 104 (1996) 1610 123 168 234 291 479 1110 1760 6110 11000
2020-02-25 05:00 4.37 1640 12600 (2018) 104 (1996) 1610 123 168 234 291 479 1110 1760 6110 11000
2020-02-25 04:30 4.38 1650 12600 (2018) 104 (1996) 1610 123 168 234 291 479 1110 1760 6110 11000
2020-02-25 04:00 4.39 1660 12600 (2018) 104 (1996) 1610 123 168 234 291 479 1110 1760 6110 11000
2020-02-25 03:30 4.40 1660 12600 (2018) 104 (1996) 1610 123 168 234 291 479 1110 1760 6110 11000
2020-02-25 03:00 4.41 1670 12600 (2018) 104 (1996) 1610 123 168 234 291 479 1110 1760 6110 11000
2020-02-25 02:30 4.42 1680 12600 (2018) 104 (1996) 1610 123 168 234 291 479 1110 1760 6110 11000
2020-02-25 02:00 4.42 1680 12600 (2018) 104 (1996) 1610 123 168 234 291 479 1110 1760 6110 11000
2020-02-25 01:30 4.42 1680 12600 (2018) 104 (1996) 1610 123 168 234 291 479 1110 1760 6110 11000
2020-02-25 01:00 4.41 1670 12600 (2018) 104 (1996) 1610 123 168 234 291 479 1110 1760 6110 11000
2020-02-25 00:30 4.39 1660 12600 (2018) 104 (1996) 1610 123 168 234 291 479 1110 1760 6110 11000
2020-02-25 00:00 4.39 1660 12600 (2018) 104 (1996) 1610 123 168 234 291 479 1110 1760 6110 11000
2020-02-24 23:30 4.36 1630 11200 (2018) 110 (1996) 1010 128 171 255 320 560 998 1310 1750 5650
2020-02-24 23:00 4.33 1600 11200 (2018) 110 (1996) 1010 128 171 255 320 560 998 1310 1750 5650
2020-02-24 22:30 4.29 1570 11200 (2018) 110 (1996) 1010 128 171 255 320 560 998 1310 1750 5650
2020-02-24 22:00 4.23 1510 11200 (2018) 110 (1996) 1010 128 171 255 320 560 998 1310 1750 5650
2020-02-24 21:30 4.16 1450 11200 (2018) 110 (1996) 1010 128 171 255 320 560 998 1310 1750 5650
2020-02-24 21:00 4.09 1400 11200 (2018) 110 (1996) 1010 128 171 255 320 560 998 1310 1750 5650
2020-02-24 20:30 3.98 1310 11200 (2018) 110 (1996) 1010 128 171 255 320 560 998 1310 1750 5650
2020-02-24 20:00 3.87 1230 11200 (2018) 110 (1996) 1010 128 171 255 320 560 998 1310 1750 5650
2020-02-24 19:30 3.76 1150 11200 (2018) 110 (1996) 1010 128 171 255 320 560 998 1310 1750 5650
2020-02-24 19:00 3.67 1080 11200 (2018) 110 (1996) 1010 128 171 255 320 560 998 1310 1750 5650
2020-02-24 18:30 3.59 1020 11200 (2018) 110 (1996) 1010 128 171 255 320 560 998 1310 1750 5650
2020-02-24 18:00 3.53 979 11200 (2018) 110 (1996) 1010 128 171 255 320 560 998 1310 1750 5650
2020-02-24 17:30 3.47 938 11200 (2018) 110 (1996) 1010 128 171 255 320 560 998 1310 1750 5650
2020-02-24 17:00 3.42 904 11200 (2018) 110 (1996) 1010 128 171 255 320 560 998 1310 1750 5650
2020-02-24 16:30 3.36 865 11200 (2018) 110 (1996) 1010 128 171 255 320 560 998 1310 1750 5650
2020-02-24 16:00 3.29 819 11200 (2018) 110 (1996) 1010 128 171 255 320 560 998 1310 1750 5650
2020-02-24 15:30 3.24 785 11200 (2018) 110 (1996) 1010 128 171 255 320 560 998 1310 1750 5650
2020-02-24 15:00 3.19 753 11200 (2018) 110 (1996) 1010 128 171 255 320 560 998 1310 1750 5650
2020-02-24 14:30 3.14 721 11200 (2018) 110 (1996) 1010 128 171 255 320 560 998 1310 1750 5650
2020-02-24 14:00 3.10 696 11200 (2018) 110 (1996) 1010 128 171 255 320 560 998 1310 1750 5650
2020-02-24 13:30 3.07 678 11200 (2018) 110 (1996) 1010 128 171 255 320 560 998 1310 1750 5650
2020-02-24 13:00 3.03 655 11200 (2018) 110 (1996) 1010 128 171 255 320 560 998 1310 1750 5650
2020-02-24 12:30 2.99 632 11200 (2018) 110 (1996) 1010 128 171 255 320 560 998 1310 1750 5650
2020-02-24 12:00 2.95 610 11200 (2018) 110 (1996) 1010 128 171 255 320 560 998 1310 1750 5650
2020-02-24 11:30 2.91 589 11200 (2018) 110 (1996) 1010 128 171 255 320 560 998 1310 1750 5650
2020-02-24 11:00 2.86 563 11200 (2018) 110 (1996) 1010 128 171 255 320 560 998 1310 1750 5650
2020-02-24 10:30 2.83 548 11200 (2018) 110 (1996) 1010 128 171 255 320 560 998 1310 1750 5650
2020-02-24 10:00 2.79 528 11200 (2018) 110 (1996) 1010 128 171 255 320 560 998 1310 1750 5650
2020-02-24 09:30 2.75 509 11200 (2018) 110 (1996) 1010 128 171 255 320 560 998 1310 1750 5650
2020-02-24 09:00 2.73 500 11200 (2018) 110 (1996) 1010 128 171 255 320 560 998 1310 1750 5650
2020-02-24 08:30 2.70 486 11200 (2018) 110 (1996) 1010 128 171 255 320 560 998 1310 1750 5650
2020-02-24 08:00 2.68 477 11200 (2018) 110 (1996) 1010 128 171 255 320 560 998 1310 1750 5650
2020-02-24 07:30 2.66 468 11200 (2018) 110 (1996) 1010 128 171 255 320 560 998 1310 1750 5650
2020-02-24 07:00 2.65 464 11200 (2018) 110 (1996) 1010 128 171 255 320 560 998 1310 1750 5650
2020-02-24 06:30 2.64 459 11200 (2018) 110 (1996) 1010 128 171 255 320 560 998 1310 1750 5650
2020-02-24 06:00 2.63 455 11200 (2018) 110 (1996) 1010 128 171 255 320 560 998 1310 1750 5650
2020-02-24 05:30 2.62 451 11200 (2018) 110 (1996) 1010 128 171 255 320 560 998 1310 1750 5650
2020-02-24 05:00 2.61 446 11200 (2018) 110 (1996) 1010 128 171 255 320 560 998 1310 1750 5650
2020-02-24 04:30 2.60 442 11200 (2018) 110 (1996) 1010 128 171 255 320 560 998 1310 1750 5650
2020-02-24 04:00 2.59 438 11200 (2018) 110 (1996) 1010 128 171 255 320 560 998 1310 1750 5650
2020-02-24 03:30 2.58 434 11200 (2018) 110 (1996) 1010 128 171 255 320 560 998 1310 1750 5650
2020-02-24 03:00 2.57 430 11200 (2018) 110 (1996) 1010 128 171 255 320 560 998 1310 1750 5650
2020-02-24 02:30 2.57 430 11200 (2018) 110 (1996) 1010 128 171 255 320 560 998 1310 1750 5650
2020-02-24 02:00 2.57 430 11200 (2018) 110 (1996) 1010 128 171 255 320 560 998 1310 1750 5650
2020-02-24 01:30 2.56 426 11200 (2018) 110 (1996) 1010 128 171 255 320 560 998 1310 1750 5650
2020-02-24 01:00 2.56 426 11200 (2018) 110 (1996) 1010 128 171 255 320 560 998 1310 1750 5650
2020-02-24 00:30 2.56 426 11200 (2018) 110 (1996) 1010 128 171 255 320 560 998 1310 1750 5650
2020-02-24 00:00 2.56 426 11200 (2018) 110 (1996) 1010 128 171 255 320 560 998 1310 1750 5650
2020-02-23 23:30 2.56 426 3950 (2018) 114 (1996) 838 131 179 247 288 451 1030 1180 2840 3490
2020-02-23 23:00 2.56 426 3950 (2018) 114 (1996) 838 131 179 247 288 451 1030 1180 2840 3490
2020-02-23 22:30 2.56 426 3950 (2018) 114 (1996) 838 131 179 247 288 451 1030 1180 2840 3490
2020-02-23 22:00 2.56 426 3950 (2018) 114 (1996) 838 131 179 247 288 451 1030 1180 2840 3490
2020-02-23 21:30 2.57 430 3950 (2018) 114 (1996) 838 131 179 247 288 451 1030 1180 2840 3490
2020-02-23 21:00 2.57 430 3950 (2018) 114 (1996) 838 131 179 247 288 451 1030 1180 2840 3490
2020-02-23 20:30 2.57 430 3950 (2018) 114 (1996) 838 131 179 247 288 451 1030 1180 2840 3490
2020-02-23 20:00 2.57 430 3950 (2018) 114 (1996) 838 131 179 247 288 451 1030 1180 2840 3490
2020-02-23 19:30 2.57 430 3950 (2018) 114 (1996) 838 131 179 247 288 451 1030 1180 2840 3490
2020-02-23 19:00 2.57 430 3950 (2018) 114 (1996) 838 131 179 247 288 451 1030 1180 2840 3490
2020-02-23 18:30 2.57 430 3950 (2018) 114 (1996) 838 131 179 247 288 451 1030 1180 2840 3490
2020-02-23 18:00 2.57 430 3950 (2018) 114 (1996) 838 131 179 247 288 451 1030 1180 2840 3490
2020-02-23 17:30 2.58 434 3950 (2018) 114 (1996) 838 131 179 247 288 451 1030 1180 2840 3490
2020-02-23 17:00 2.58 434 3950 (2018) 114 (1996) 838 131 179 247 288 451 1030 1180 2840 3490
2020-02-23 16:30 2.58 434 3950 (2018) 114 (1996) 838 131 179 247 288 451 1030 1180 2840 3490
2020-02-23 16:00 2.58 434 3950 (2018) 114 (1996) 838 131 179 247 288 451 1030 1180 2840 3490
2020-02-23 15:30 2.58 434 3950 (2018) 114 (1996) 838 131 179 247 288 451 1030 1180 2840 3490
2020-02-23 15:00 2.59 438 3950 (2018) 114 (1996) 838 131 179 247 288 451 1030 1180 2840 3490
2020-02-23 14:30 2.59 438 3950 (2018) 114 (1996) 838 131 179 247 288 451 1030 1180 2840 3490
2020-02-23 14:00 2.59 438 3950 (2018) 114 (1996) 838 131 179 247 288 451 1030 1180 2840 3490
2020-02-23 13:30 2.59 438 3950 (2018) 114 (1996) 838 131 179 247 288 451 1030 1180 2840 3490
2020-02-23 13:00 2.59 438 3950 (2018) 114 (1996) 838 131 179 247 288 451 1030 1180 2840 3490
2020-02-23 12:30 2.59 438 3950 (2018) 114 (1996) 838 131 179 247 288 451 1030 1180 2840 3490
2020-02-23 12:00 2.59 438 3950 (2018) 114 (1996) 838 131 179 247 288 451 1030 1180 2840 3490
2020-02-23 11:30 2.59 438 3950 (2018) 114 (1996) 838 131 179 247 288 451 1030 1180 2840 3490
2020-02-23 11:00 2.59 438 3950 (2018) 114 (1996) 838 131 179 247 288 451 1030 1180 2840 3490
2020-02-23 10:30 2.59 438 3950 (2018) 114 (1996) 838 131 179 247 288 451 1030 1180 2840 3490
2020-02-23 10:00 2.59 438 3950 (2018) 114 (1996) 838 131 179 247 288 451 1030 1180 2840 3490
2020-02-23 09:30 2.59 438 3950 (2018) 114 (1996) 838 131 179 247 288 451 1030 1180 2840 3490
2020-02-23 09:00 2.59 438 3950 (2018) 114 (1996) 838 131 179 247 288 451 1030 1180 2840 3490
2020-02-23 08:30 2.60 442 3950 (2018) 114 (1996) 838 131 179 247 288 451 1030 1180 2840 3490
2020-02-23 08:00 2.59 438 3950 (2018) 114 (1996) 838 131 179 247 288 451 1030 1180 2840 3490
2020-02-23 07:30 2.60 442 3950 (2018) 114 (1996) 838 131 179 247 288 451 1030 1180 2840 3490
2020-02-23 07:00 2.60 442 3950 (2018) 114 (1996) 838 131 179 247 288 451 1030 1180 2840 3490
2020-02-23 06:30 2.60 442 3950 (2018) 114 (1996) 838 131 179 247 288 451 1030 1180 2840 3490
2020-02-23 06:00 2.60 442 3950 (2018) 114 (1996) 838 131 179 247 288 451 1030 1180 2840 3490
2020-02-23 05:30 2.60 442 3950 (2018) 114 (1996) 838 131 179 247 288 451 1030 1180 2840 3490
2020-02-23 05:00 2.61 446 3950 (2018) 114 (1996) 838 131 179 247 288 451 1030 1180 2840 3490
2020-02-23 04:30 2.61 446 3950 (2018) 114 (1996) 838 131 179 247 288 451 1030 1180 2840 3490
2020-02-23 04:00 2.61 446 3950 (2018) 114 (1996) 838 131 179 247 288 451 1030 1180 2840 3490
2020-02-23 03:30 2.62 451 3950 (2018) 114 (1996) 838 131 179 247 288 451 1030 1180 2840 3490
2020-02-23 03:00 2.61 446 3950 (2018) 114 (1996) 838 131 179 247 288 451 1030 1180 2840 3490
2020-02-23 02:30 2.62 451 3950 (2018) 114 (1996) 838 131 179 247 288 451 1030 1180 2840 3490
2020-02-23 02:00 2.62 451 3950 (2018) 114 (1996) 838 131 179 247 288 451 1030 1180 2840 3490
2020-02-23 01:30 2.62 451 3950 (2018) 114 (1996) 838 131 179 247 288 451 1030 1180 2840 3490
2020-02-23 01:00 2.62 451 3950 (2018) 114 (1996) 838 131 179 247 288 451 1030 1180 2840 3490
2020-02-23 00:30 2.62 451 3950 (2018) 114 (1996) 838 131 179 247 288 451 1030 1180 2840 3490
2020-02-23 00:00 2.62 451 3950 (2018) 114 (1996) 838 131 179 247 288 451 1030 1180 2840 3490
2020-02-22 23:30 2.63 455 5600 (2018) 115 (1996) 935 131 177 265 326 491 915 1020 2070 4650
2020-02-22 23:00 2.63 455 5600 (2018) 115 (1996) 935 131 177 265 326 491 915 1020 2070 4650
2020-02-22 22:30 2.63 455 5600 (2018) 115 (1996) 935 131 177 265 326 491 915 1020 2070 4650
2020-02-22 22:00 2.63 455 5600 (2018) 115 (1996) 935 131 177 265 326 491 915 1020 2070 4650
2020-02-22 21:30 2.63 455 5600 (2018) 115 (1996) 935 131 177 265 326 491 915 1020 2070 4650
2020-02-22 21:00 2.63 455 5600 (2018) 115 (1996) 935 131 177 265 326 491 915 1020 2070 4650
2020-02-22 20:30 2.64 459 5600 (2018) 115 (1996) 935 131 177 265 326 491 915 1020 2070 4650
2020-02-22 20:00 2.64 459 5600 (2018) 115 (1996) 935 131 177 265 326 491 915 1020 2070 4650
2020-02-22 19:30 2.64 459 5600 (2018) 115 (1996) 935 131 177 265 326 491 915 1020 2070 4650
2020-02-22 19:00 2.64 459 5600 (2018) 115 (1996) 935 131 177 265 326 491 915 1020 2070 4650
2020-02-22 18:30 2.64 459 5600 (2018) 115 (1996) 935 131 177 265 326 491 915 1020 2070 4650
2020-02-22 18:00 2.65 464 5600 (2018) 115 (1996) 935 131 177 265 326 491 915 1020 2070 4650
2020-02-22 17:30 2.65 464 5600 (2018) 115 (1996) 935 131 177 265 326 491 915 1020 2070 4650
2020-02-22 17:00 2.65 464 5600 (2018) 115 (1996) 935 131 177 265 326 491 915 1020 2070 4650
2020-02-22 16:30 2.65 464 5600 (2018) 115 (1996) 935 131 177 265 326 491 915 1020 2070 4650
2020-02-22 16:00 2.65 464 5600 (2018) 115 (1996) 935 131 177 265 326 491 915 1020 2070 4650
2020-02-22 15:30 2.66 468 5600 (2018) 115 (1996) 935 131 177 265 326 491 915 1020 2070 4650
2020-02-22 15:00 2.66 468 5600 (2018) 115 (1996) 935 131 177 265 326 491 915 1020 2070 4650
2020-02-22 14:30 2.66 468 5600 (2018) 115 (1996) 935 131 177 265 326 491 915 1020 2070 4650
2020-02-22 14:00 2.66 468 5600 (2018) 115 (1996) 935 131 177 265 326 491 915 1020 2070 4650
2020-02-22 13:30 2.66 468 5600 (2018) 115 (1996) 935 131 177 265 326 491 915 1020 2070 4650
2020-02-22 13:00 2.66 468 5600 (2018) 115 (1996) 935 131 177 265 326 491 915 1020 2070 4650
2020-02-22 12:30 2.66 468 5600 (2018) 115 (1996) 935 131 177 265 326 491 915 1020 2070 4650
2020-02-22 12:00 2.67 472 5600 (2018) 115 (1996) 935 131 177 265 326 491 915 1020 2070 4650
2020-02-22 11:30 2.67 472 5600 (2018) 115 (1996) 935 131 177 265 326 491 915 1020 2070 4650
2020-02-22 11:00 2.67 472 5600 (2018) 115 (1996) 935 131 177 265 326 491 915 1020 2070 4650
2020-02-22 10:30 2.67 472 5600 (2018) 115 (1996) 935 131 177 265 326 491 915 1020 2070 4650
2020-02-22 10:00 2.67 472 5600 (2018) 115 (1996) 935 131 177 265 326 491 915 1020 2070 4650
2020-02-22 09:30 2.66 468 5600 (2018) 115 (1996) 935 131 177 265 326 491 915 1020 2070 4650
2020-02-22 09:00 2.66 468 5600 (2018) 115 (1996) 935 131 177 265 326 491 915 1020 2070 4650
2020-02-22 08:30 2.66 468 5600 (2018) 115 (1996) 935 131 177 265 326 491 915 1020 2070 4650
2020-02-22 08:00 2.66 468 5600 (2018) 115 (1996) 935 131 177 265 326 491 915 1020 2070 4650
2020-02-22 07:30 2.66 468 5600 (2018) 115 (1996) 935 131 177 265 326 491 915 1020 2070 4650
2020-02-22 07:00 2.67 472 5600 (2018) 115 (1996) 935 131 177 265 326 491 915 1020 2070 4650
2020-02-22 06:30 2.67 472 5600 (2018) 115 (1996) 935 131 177 265 326 491 915 1020 2070 4650
2020-02-22 06:00 2.67 472 5600 (2018) 115 (1996) 935 131 177 265 326 491 915 1020 2070 4650
2020-02-22 05:30 2.67 472 5600 (2018) 115 (1996) 935 131 177 265 326 491 915 1020 2070 4650
2020-02-22 05:00 2.67 472 5600 (2018) 115 (1996) 935 131 177 265 326 491 915 1020 2070 4650
2020-02-22 04:30 2.68 477 5600 (2018) 115 (1996) 935 131 177 265 326 491 915 1020 2070 4650
2020-02-22 04:00 2.68 477 5600 (2018) 115 (1996) 935 131 177 265 326 491 915 1020 2070 4650
2020-02-22 03:30 2.68 477 5600 (2018) 115 (1996) 935 131 177 265 326 491 915 1020 2070 4650
2020-02-22 03:00 2.69 481 5600 (2018) 115 (1996) 935 131 177 265 326 491 915 1020 2070 4650
2020-02-22 02:30 2.69 481 5600 (2018) 115 (1996) 935 131 177 265 326 491 915 1020 2070 4650
2020-02-22 02:00 2.69 481 5600 (2018) 115 (1996) 935 131 177 265 326 491 915 1020 2070 4650
2020-02-22 01:30 2.69 481 5600 (2018) 115 (1996) 935 131 177 265 326 491 915 1020 2070 4650
2020-02-22 01:00 2.70 486 5600 (2018) 115 (1996) 935 131 177 265 326 491 915 1020 2070 4650
2020-02-22 00:30 2.70 486 5600 (2018) 115 (1996) 935 131 177 265 326 491 915 1020 2070 4650
2020-02-22 00:00 2.70 486 5600 (2018) 115 (1996) 935 131 177 265 326 491 915 1020 2070 4650
2020-02-21 23:30 2.70 486 10300 (2018) 117 (1996) 1090 133 161 275 364 499 968 1070 2660 7040
2020-02-21 23:00 2.71 490 10300 (2018) 117 (1996) 1090 133 161 275 364 499 968 1070 2660 7040
2020-02-21 22:30 2.71 490 10300 (2018) 117 (1996) 1090 133 161 275 364 499 968 1070 2660 7040
2020-02-21 22:00 2.71 490 10300 (2018) 117 (1996) 1090 133 161 275 364 499 968 1070 2660 7040
2020-02-21 21:30 2.72 495 10300 (2018) 117 (1996) 1090 133 161 275 364 499 968 1070 2660 7040
2020-02-21 21:00 2.72 495 10300 (2018) 117 (1996) 1090 133 161 275 364 499 968 1070 2660 7040
2020-02-21 20:30 2.72 495 10300 (2018) 117 (1996) 1090 133 161 275 364 499 968 1070 2660 7040
2020-02-21 20:00 2.73 500 10300 (2018) 117 (1996) 1090 133 161 275 364 499 968 1070 2660 7040
2020-02-21 19:30 2.73 500 10300 (2018) 117 (1996) 1090 133 161 275 364 499 968 1070 2660 7040
2020-02-21 19:00 2.73 500 10300 (2018) 117 (1996) 1090 133 161 275 364 499 968 1070 2660 7040
2020-02-21 18:30 2.74 504 10300 (2018) 117 (1996) 1090 133 161 275 364 499 968 1070 2660 7040
2020-02-21 18:00 2.74 504 10300 (2018) 117 (1996) 1090 133 161 275 364 499 968 1070 2660 7040
2020-02-21 17:30 2.74 504 10300 (2018) 117 (1996) 1090 133 161 275 364 499 968 1070 2660 7040
2020-02-21 17:00 2.75 509 10300 (2018) 117 (1996) 1090 133 161 275 364 499 968 1070 2660 7040
2020-02-21 16:30 2.75 509 10300 (2018) 117 (1996) 1090 133 161 275 364 499 968 1070 2660 7040
2020-02-21 16:00 2.75 509 10300 (2018) 117 (1996) 1090 133 161 275 364 499 968 1070 2660 7040
2020-02-21 15:30 2.75 509 10300 (2018) 117 (1996) 1090 133 161 275 364 499 968 1070 2660 7040
2020-02-21 15:00 2.75 509 10300 (2018) 117 (1996) 1090 133 161 275 364 499 968 1070 2660 7040
2020-02-21 14:30 2.75 509 10300 (2018) 117 (1996) 1090 133 161 275 364 499 968 1070 2660 7040
2020-02-21 14:00 2.76 514 10300 (2018) 117 (1996) 1090 133 161 275 364 499 968 1070 2660 7040
2020-02-21 13:30 2.76 514 10300 (2018) 117 (1996) 1090 133 161 275 364 499 968 1070 2660 7040
2020-02-21 13:00 2.76 514 10300 (2018) 117 (1996) 1090 133 161 275 364 499 968 1070 2660 7040
2020-02-21 12:30 2.76 514 10300 (2018) 117 (1996) 1090 133 161 275 364 499 968 1070 2660 7040
2020-02-21 12:00 2.77 518 10300 (2018) 117 (1996) 1090 133 161 275 364 499 968 1070 2660 7040
2020-02-21 11:30 2.76 514 10300 (2018) 117 (1996) 1090 133 161 275 364 499 968 1070 2660 7040
2020-02-21 11:00 2.77 518 10300 (2018) 117 (1996) 1090 133 161 275 364 499 968 1070 2660 7040
2020-02-21 10:30 2.77 518 10300 (2018) 117 (1996) 1090 133 161 275 364 499 968 1070 2660 7040
2020-02-21 10:00 2.77 518 10300 (2018) 117 (1996) 1090 133 161 275 364 499 968 1070 2660 7040
2020-02-21 09:30 2.77 518 10300 (2018) 117 (1996) 1090 133 161 275 364 499 968 1070 2660 7040
2020-02-21 09:00 2.78 523 10300 (2018) 117 (1996) 1090 133 161 275 364 499 968 1070 2660 7040
2020-02-21 08:30 2.78 523 10300 (2018) 117 (1996) 1090 133 161 275 364 499 968 1070 2660 7040
2020-02-21 08:00 2.78 523 10300 (2018) 117 (1996) 1090 133 161 275 364 499 968 1070 2660 7040
2020-02-21 07:30 2.79 528 10300 (2018) 117 (1996) 1090 133 161 275 364 499 968 1070 2660 7040
2020-02-21 07:00 2.79 528 10300 (2018) 117 (1996) 1090 133 161 275 364 499 968 1070 2660 7040
2020-02-21 06:30 2.79 528 10300 (2018) 117 (1996) 1090 133 161 275 364 499 968 1070 2660 7040
2020-02-21 06:00 2.80 533 10300 (2018) 117 (1996) 1090 133 161 275 364 499 968 1070 2660 7040
2020-02-21 05:30 2.80 533 10300 (2018) 117 (1996) 1090 133 161 275 364 499 968 1070 2660 7040
2020-02-21 05:00 2.80 533 10300 (2018) 117 (1996) 1090 133 161 275 364 499 968 1070 2660 7040
2020-02-21 04:30 2.81 538 10300 (2018) 117 (1996) 1090 133 161 275 364 499 968 1070 2660 7040
2020-02-21 04:00 2.81 538 10300 (2018) 117 (1996) 1090 133 161 275 364 499 968 1070 2660 7040
2020-02-21 03:30 2.81 538 10300 (2018) 117 (1996) 1090 133 161 275 364 499 968 1070 2660 7040
2020-02-21 03:00 2.81 538 10300 (2018) 117 (1996) 1090 133 161 275 364 499 968 1070 2660 7040
2020-02-21 02:30 2.82 543 10300 (2018) 117 (1996) 1090 133 161 275 364 499 968 1070 2660 7040
2020-02-21 02:00 2.82 543 10300 (2018) 117 (1996) 1090 133 161 275 364 499 968 1070 2660 7040
2020-02-21 01:30 2.82 543 10300 (2018) 117 (1996) 1090 133 161 275 364 499 968 1070 2660 7040
2020-02-21 01:00 2.83 548 10300 (2018) 117 (1996) 1090 133 161 275 364 499 968 1070 2660 7040
2020-02-21 00:30 2.83 548 10300 (2018) 117 (1996) 1090 133 161 275 364 499 968 1070 2660 7040
2020-02-21 00:00 2.83 548 10300 (2018) 117 (1996) 1090 133 161 275 364 499 968 1070 2660 7040
2020-02-20 23:30 2.84 553 7800 (2019) 122 (1996) 1020 127 152 241 258 469 759 908 3370 6360
2020-02-20 23:00 2.84 553 7800 (2019) 122 (1996) 1020 127 152 241 258 469 759 908 3370 6360
2020-02-20 22:30 2.85 558 7800 (2019) 122 (1996) 1020 127 152 241 258 469 759 908 3370 6360
2020-02-20 22:00 2.85 558 7800 (2019) 122 (1996) 1020 127 152 241 258 469 759 908 3370 6360
2020-02-20 21:30 2.85 558 7800 (2019) 122 (1996) 1020 127 152 241 258 469 759 908 3370 6360
2020-02-20 21:00 2.86 563 7800 (2019) 122 (1996) 1020 127 152 241 258 469 759 908 3370 6360
2020-02-20 20:30 2.86 563 7800 (2019) 122 (1996) 1020 127 152 241 258 469 759 908 3370 6360
2020-02-20 20:00 2.86 563 7800 (2019) 122 (1996) 1020 127 152 241 258 469 759 908 3370 6360
2020-02-20 19:30 2.87 568 7800 (2019) 122 (1996) 1020 127 152 241 258 469 759 908 3370 6360
2020-02-20 19:00 2.87 568 7800 (2019) 122 (1996) 1020 127 152 241 258 469 759 908 3370 6360
2020-02-20 18:30 2.87 568 7800 (2019) 122 (1996) 1020 127 152 241 258 469 759 908 3370 6360
2020-02-20 18:00 2.88 573 7800 (2019) 122 (1996) 1020 127 152 241 258 469 759 908 3370 6360
2020-02-20 17:30 2.88 573 7800 (2019) 122 (1996) 1020 127 152 241 258 469 759 908 3370 6360
2020-02-20 17:00 2.88 573 7800 (2019) 122 (1996) 1020 127 152 241 258 469 759 908 3370 6360
2020-02-20 16:30 2.88 573 7800 (2019) 122 (1996) 1020 127 152 241 258 469 759 908 3370 6360
2020-02-20 16:00 2.89 578 7800 (2019) 122 (1996) 1020 127 152 241 258 469 759 908 3370 6360
2020-02-20 15:30 2.89 578 7800 (2019) 122 (1996) 1020 127 152 241 258 469 759 908 3370 6360
2020-02-20 15:00 2.89 578 7800 (2019) 122 (1996) 1020 127 152 241 258 469 759 908 3370 6360
2020-02-20 14:30 2.89 578 7800 (2019) 122 (1996) 1020 127 152 241 258 469 759 908 3370 6360
2020-02-20 14:00 2.90 584 7800 (2019) 122 (1996) 1020 127 152 241 258 469 759 908 3370 6360
2020-02-20 13:30 2.91 589 7800 (2019) 122 (1996) 1020 127 152 241 258 469 759 908 3370 6360
2020-02-20 13:00 2.90 584 7800 (2019) 122 (1996) 1020 127 152 241 258 469 759 908 3370 6360
2020-02-20 12:30 2.91 589 7800 (2019) 122 (1996) 1020 127 152 241 258 469 759 908 3370 6360
2020-02-20 12:00 2.91 589 7800 (2019) 122 (1996) 1020 127 152 241 258 469 759 908 3370 6360
2020-02-20 11:30 2.91 589 7800 (2019) 122 (1996) 1020 127 152 241 258 469 759 908 3370 6360
2020-02-20 11:00 2.91 589 7800 (2019) 122 (1996) 1020 127 152 241 258 469 759 908 3370 6360
2020-02-20 10:30 2.91 589 7800 (2019) 122 (1996) 1020 127 152 241 258 469 759 908 3370 6360
2020-02-20 10:00 2.92 594 7800 (2019) 122 (1996) 1020 127 152 241 258 469 759 908 3370 6360
2020-02-20 09:30 2.92 594 7800 (2019) 122 (1996) 1020 127 152 241 258 469 759 908 3370 6360
2020-02-20 09:00 2.93 599 7800 (2019) 122 (1996) 1020 127 152 241 258 469 759 908 3370 6360
2020-02-20 08:30 2.93 599 7800 (2019) 122 (1996) 1020 127 152 241 258 469 759 908 3370 6360
2020-02-20 08:00 2.94 605 7800 (2019) 122 (1996) 1020 127 152 241 258 469 759 908 3370 6360
2020-02-20 07:30 2.94 605 7800 (2019) 122 (1996) 1020 127 152 241 258 469 759 908 3370 6360
2020-02-20 07:00 2.94 605 7800 (2019) 122 (1996) 1020 127 152 241 258 469 759 908 3370 6360
2020-02-20 06:30 2.94 605 7800 (2019) 122 (1996) 1020 127 152 241 258 469 759 908 3370 6360
2020-02-20 06:00 2.95 610 7800 (2019) 122 (1996) 1020 127 152 241 258 469 759 908 3370 6360
2020-02-20 05:30 2.95 610 7800 (2019) 122 (1996) 1020 127 152 241 258 469 759 908 3370 6360
2020-02-20 05:00 2.95 610 7800 (2019) 122 (1996) 1020 127 152 241 258 469 759 908 3370 6360
2020-02-20 04:30 2.96 616 7800 (2019) 122 (1996) 1020 127 152 241 258 469 759 908 3370 6360
2020-02-20 04:00 2.96 616 7800 (2019) 122 (1996) 1020 127 152 241 258 469 759 908 3370 6360
2020-02-20 03:30 2.97 621 7800 (2019) 122 (1996) 1020 127 152 241 258 469 759 908 3370 6360
2020-02-20 03:00 2.97 621 7800 (2019) 122 (1996) 1020 127 152 241 258 469 759 908 3370 6360
2020-02-20 02:30 2.97 621 7800 (2019) 122 (1996) 1020 127 152 241 258 469 759 908 3370 6360
2020-02-20 02:00 2.98 627 7800 (2019) 122 (1996) 1020 127 152 241 258 469 759 908 3370 6360
2020-02-20 01:30 2.98 627 7800 (2019) 122 (1996) 1020 127 152 241 258 469 759 908 3370 6360
2020-02-20 01:00 2.99 632 7800 (2019) 122 (1996) 1020 127 152 241 258 469 759 908 3370 6360
2020-02-20 00:30 2.99 632 7800 (2019) 122 (1996) 1020 127 152 241 258 469 759 908 3370 6360
2020-02-20 00:00 2.99 632 7800 (2019) 122 (1996) 1020 127 152 241 258 469 759 908 3370 6360
2020-02-19 23:30 3.00 638 4900 (2003) 123 (1996) 759 127 135 230 279 463 771 914 1930 3350
2020-02-19 23:00 3.00 638 4900 (2003) 123 (1996) 759 127 135 230 279 463 771 914 1930 3350
2020-02-19 22:30 3.01 644 4900 (2003) 123 (1996) 759 127 135 230 279 463 771 914 1930 3350
2020-02-19 22:00 3.01 644 4900 (2003) 123 (1996) 759 127 135 230 279 463 771 914 1930 3350
2020-02-19 21:30 3.02 649 4900 (2003) 123 (1996) 759 127 135 230 279 463 771 914 1930 3350
2020-02-19 21:00 3.02 649 4900 (2003) 123 (1996) 759 127 135 230 279 463 771 914 1930 3350
2020-02-19 20:30 3.03 655 4900 (2003) 123 (1996) 759 127 135 230 279 463 771 914 1930 3350
2020-02-19 20:00 3.03 655 4900 (2003) 123 (1996) 759 127 135 230 279 463 771 914 1930 3350
2020-02-19 19:30 3.04 661 4900 (2003) 123 (1996) 759 127 135 230 279 463 771 914 1930 3350
2020-02-19 19:00 3.04 661 4900 (2003) 123 (1996) 759 127 135 230 279 463 771 914 1930 3350
2020-02-19 18:30 3.05 667 4900 (2003) 123 (1996) 759 127 135 230 279 463 771 914 1930 3350
2020-02-19 18:00 3.05 667 4900 (2003) 123 (1996) 759 127 135 230 279 463 771 914 1930 3350
2020-02-19 17:30 3.05 667 4900 (2003) 123 (1996) 759 127 135 230 279 463 771 914 1930 3350
2020-02-19 17:00 3.06 673 4900 (2003) 123 (1996) 759 127 135 230 279 463 771 914 1930 3350
2020-02-19 16:30 3.06 673 4900 (2003) 123 (1996) 759 127 135 230 279 463 771 914 1930 3350
2020-02-19 16:00 3.07 678 4900 (2003) 123 (1996) 759 127 135 230 279 463 771 914 1930 3350
2020-02-19 15:30 3.07 678 4900 (2003) 123 (1996) 759 127 135 230 279 463 771 914 1930 3350
2020-02-19 15:00 3.08 684 4900 (2003) 123 (1996) 759 127 135 230 279 463 771 914 1930 3350
2020-02-19 14:30 3.08 684 4900 (2003) 123 (1996) 759 127 135 230 279 463 771 914 1930 3350
2020-02-19 14:00 3.09 690 4900 (2003) 123 (1996) 759 127 135 230 279 463 771 914 1930 3350
2020-02-19 13:30 3.09 690 4900 (2003) 123 (1996) 759 127 135 230 279 463 771 914 1930 3350
2020-02-19 13:00 3.09 690 4900 (2003) 123 (1996) 759 127 135 230 279 463 771 914 1930 3350
2020-02-19 12:30 3.09 690 4900 (2003) 123 (1996) 759 127 135 230 279 463 771 914 1930 3350
2020-02-19 12:00 3.10 696 4900 (2003) 123 (1996) 759 127 135 230 279 463 771 914 1930 3350
2020-02-19 11:30 3.10 696 4900 (2003) 123 (1996) 759 127 135 230 279 463 771 914 1930 3350
2020-02-19 11:00 3.10 696 4900 (2003) 123 (1996) 759 127 135 230 279 463 771 914 1930 3350
2020-02-19 10:30 3.11 702 4900 (2003) 123 (1996) 759 127 135 230 279 463 771 914 1930 3350
2020-02-19 10:00 3.11 702 4900 (2003) 123 (1996) 759 127 135 230 279 463 771 914 1930 3350
2020-02-19 09:30 3.12 709 4900 (2003) 123 (1996) 759 127 135 230 279 463 771 914 1930 3350
2020-02-19 09:00 3.12 709 4900 (2003) 123 (1996) 759 127 135 230 279 463 771 914 1930 3350
2020-02-19 08:30 3.13 715 4900 (2003) 123 (1996) 759 127 135 230 279 463 771 914 1930 3350
2020-02-19 08:00 3.13 715 4900 (2003) 123 (1996) 759 127 135 230 279 463 771 914 1930 3350
2020-02-19 07:30 3.14 721 4900 (2003) 123 (1996) 759 127 135 230 279 463 771 914 1930 3350
2020-02-19 07:00 3.14 721 4900 (2003) 123 (1996) 759 127 135 230 279 463 771 914 1930 3350
2020-02-19 06:30 3.15 727 4900 (2003) 123 (1996) 759 127 135 230 279 463 771 914 1930 3350
2020-02-19 06:00 3.16 733 4900 (2003) 123 (1996) 759 127 135 230 279 463 771 914 1930 3350
2020-02-19 05:30 3.16 733 4900 (2003) 123 (1996) 759 127 135 230 279 463 771 914 1930 3350
2020-02-19 05:00 3.17 740 4900 (2003) 123 (1996) 759 127 135 230 279 463 771 914 1930 3350
2020-02-19 04:30 3.17 740 4900 (2003) 123 (1996) 759 127 135 230 279 463 771 914 1930 3350
2020-02-19 04:00 3.18 746 4900 (2003) 123 (1996) 759 127 135 230 279 463 771 914 1930 3350
2020-02-19 03:30 3.19 753 4900 (2003) 123 (1996) 759 127 135 230 279 463 771 914 1930 3350
2020-02-19 03:00 3.18 746 4900 (2003) 123 (1996) 759 127 135 230 279 463 771 914 1930 3350
2020-02-19 02:30 3.19 753 4900 (2003) 123 (1996) 759 127 135 230 279 463 771 914 1930 3350
2020-02-19 02:00 3.20 759 4900 (2003) 123 (1996) 759 127 135 230 279 463 771 914 1930 3350
2020-02-19 01:30 3.20 759 4900 (2003) 123 (1996) 759 127 135 230 279 463 771 914 1930 3350
2020-02-19 01:00 3.21 766 4900 (2003) 123 (1996) 759 127 135 230 279 463 771 914 1930 3350
2020-02-19 00:30 3.21 766 4900 (2003) 123 (1996) 759 127 135 230 279 463 771 914 1930 3350
2020-02-19 00:00 3.22 772 4900 (2003) 123 (1996) 759 127 135 230 279 463 771 914 1930 3350
2020-02-18 23:30 3.22 772 7340 (2008) 116 (2017) 762 118 127 210 242 473 791 886 1250 3970
2020-02-18 23:00 3.22 772 7340 (2008) 116 (2017) 762 118 127 210 242 473 791 886 1250 3970
2020-02-18 22:30 3.23 779 7340 (2008) 116 (2017) 762 118 127 210 242 473 791 886 1250 3970
2020-02-18 22:00 3.24 785 7340 (2008) 116 (2017) 762 118 127 210 242 473 791 886 1250 3970
2020-02-18 21:30 3.24 785 7340 (2008) 116 (2017) 762 118 127 210 242 473 791 886 1250 3970
2020-02-18 21:00 3.24 785 7340 (2008) 116 (2017) 762 118 127 210 242 473 791 886 1250 3970
2020-02-18 20:30 3.25 792 7340 (2008) 116 (2017) 762 118 127 210 242 473 791 886 1250 3970
2020-02-18 20:00 3.25 792 7340 (2008) 116 (2017) 762 118 127 210 242 473 791 886 1250 3970
2020-02-18 19:30 3.25 792 7340 (2008) 116 (2017) 762 118 127 210 242 473 791 886 1250 3970
2020-02-18 19:00 3.26 799 7340 (2008) 116 (2017) 762 118 127 210 242 473 791 886 1250 3970
2020-02-18 18:30 3.26 799 7340 (2008) 116 (2017) 762 118 127 210 242 473 791 886 1250 3970
2020-02-18 18:00 3.27 806 7340 (2008) 116 (2017) 762 118 127 210 242 473 791 886 1250 3970
2020-02-18 17:30 3.27 806 7340 (2008) 116 (2017) 762 118 127 210 242 473 791 886 1250 3970
2020-02-18 17:00 3.27 806 7340 (2008) 116 (2017) 762 118 127 210 242 473 791 886 1250 3970
2020-02-18 16:30 3.28 812 7340 (2008) 116 (2017) 762 118 127 210 242 473 791 886 1250 3970
2020-02-18 16:00 3.28 812 7340 (2008) 116 (2017) 762 118 127 210 242 473 791 886 1250 3970
2020-02-18 15:30 3.28 812 7340 (2008) 116 (2017) 762 118 127 210 242 473 791 886 1250 3970
2020-02-18 15:00 3.29 819 7340 (2008) 116 (2017) 762 118 127 210 242 473 791 886 1250 3970
2020-02-18 14:30 3.29 819 7340 (2008) 116 (2017) 762 118 127 210 242 473 791 886 1250 3970
2020-02-18 14:00 3.30 826 7340 (2008) 116 (2017) 762 118 127 210 242 473 791 886 1250 3970
2020-02-18 13:30 3.30 826 7340 (2008) 116 (2017) 762 118 127 210 242 473 791 886 1250 3970
2020-02-18 13:00 3.30 826 7340 (2008) 116 (2017) 762 118 127 210 242 473 791 886 1250 3970
2020-02-18 12:30 3.31 833 7340 (2008) 116 (2017) 762 118 127 210 242 473 791 886 1250 3970
2020-02-18 12:00 3.31 833 7340 (2008) 116 (2017) 762 118 127 210 242 473 791 886 1250 3970
2020-02-18 11:30 3.31 833 7340 (2008) 116 (2017) 762 118 127 210 242 473 791 886 1250 3970
2020-02-18 11:00 3.32 840 7340 (2008) 116 (2017) 762 118 127 210 242 473 791 886 1250 3970
2020-02-18 10:30 3.33 846 7340 (2008) 116 (2017) 762 118 127 210 242 473 791 886 1250 3970
2020-02-18 10:00 3.33 846 7340 (2008) 116 (2017) 762 118 127 210 242 473 791 886 1250 3970
2020-02-18 09:30 3.34 853 7340 (2008) 116 (2017) 762 118 127 210 242 473 791 886 1250 3970
2020-02-18 09:00 3.34 853 7340 (2008) 116 (2017) 762 118 127 210 242 473 791 886 1250 3970
2020-02-18 08:30 3.34 853 7340 (2008) 116 (2017) 762 118 127 210 242 473 791 886 1250 3970
2020-02-18 08:00 3.35 859 7340 (2008) 116 (2017) 762 118 127 210 242 473 791 886 1250 3970
2020-02-18 07:30 3.36 865 7340 (2008) 116 (2017) 762 118 127 210 242 473 791 886 1250 3970
2020-02-18 07:00 3.36 865 7340 (2008) 116 (2017) 762 118 127 210 242 473 791 886 1250 3970
2020-02-18 06:30 3.36 865 7340 (2008) 116 (2017) 762 118 127 210 242 473 791 886 1250 3970
2020-02-18 06:00 3.37 872 7340 (2008) 116 (2017) 762 118 127 210 242 473 791 886 1250 3970
2020-02-18 05:30 3.37 872 7340 (2008) 116 (2017) 762 118 127 210 242 473 791 886 1250 3970
2020-02-18 05:00 3.37 872 7340 (2008) 116 (2017) 762 118 127 210 242 473 791 886 1250 3970
2020-02-18 04:30 3.38 878 7340 (2008) 116 (2017) 762 118 127 210 242 473 791 886 1250 3970
2020-02-18 04:00 3.38 878 7340 (2008) 116 (2017) 762 118 127 210 242 473 791 886 1250 3970
2020-02-18 03:30 3.38 878 7340 (2008) 116 (2017) 762 118 127 210 242 473 791 886 1250 3970
2020-02-18 03:00 3.39 885 7340 (2008) 116 (2017) 762 118 127 210 242 473 791 886 1250 3970
2020-02-18 02:30 3.40 891 7340 (2008) 116 (2017) 762 118 127 210 242 473 791 886 1250 3970
2020-02-18 02:00 3.40 891 7340 (2008) 116 (2017) 762 118 127 210 242 473 791 886 1250 3970
2020-02-18 01:30 3.40 891 7340 (2008) 116 (2017) 762 118 127 210 242 473 791 886 1250 3970
2020-02-18 01:00 3.40 891 7340 (2008) 116 (2017) 762 118 127 210 242 473 791 886 1250 3970
2020-02-18 00:30 3.41 898 7340 (2008) 116 (2017) 762 118 127 210 242 473 791 886 1250 3970
2020-02-18 00:00 3.41 898 7340 (2008) 116 (2017) 762 118 127 210 242 473 791 886 1250 3970

A total of 366 rows are displayed for years 1987 through 2019.